sensor_id;sensor_type;location;lat;lon;timestamp;P1;durP1;ratioP1;P2;durP2;ratioP2
52962;SDS011;38827;53.024;6.596;2024-02-15T00:00:09;38.75;;;19.88;;
52962;SDS011;38827;53.024;6.596;2024-02-15T00:02:36;37.60;;;18.88;;
52962;SDS011;38827;53.024;6.596;2024-02-15T00:05:01;37.08;;;19.23;;
52962;SDS011;38827;53.024;6.596;2024-02-15T00:07:27;43.58;;;19.17;;
52962;SDS011;38827;53.024;6.596;2024-02-15T00:09:53;41.17;;;19.73;;
52962;SDS011;38827;53.024;6.596;2024-02-15T00:12:21;44.15;;;20.08;;
52962;SDS011;38827;53.024;6.596;2024-02-15T00:14:47;43.95;;;19.42;;
52962;SDS011;38827;53.024;6.596;2024-02-15T00:17:13;41.65;;;20.63;;
52962;SDS011;38827;53.024;6.596;2024-02-15T00:19:39;33.30;;;18.17;;
52962;SDS011;38827;53.024;6.596;2024-02-15T00:22:10;37.70;;;19.23;;
52962;SDS011;38827;53.024;6.596;2024-02-15T00:24:39;41.65;;;19.50;;
52962;SDS011;38827;53.024;6.596;2024-02-15T00:27:06;39.60;;;19.40;;
52962;SDS011;38827;53.024;6.596;2024-02-15T00:29:32;47.63;;;20.33;;
52962;SDS011;38827;53.024;6.596;2024-02-15T00:32:00;45.33;;;21.25;;
52962;SDS011;38827;53.024;6.596;2024-02-15T00:34:26;45.90;;;20.50;;
52962;SDS011;38827;53.024;6.596;2024-02-15T00:36:52;42.30;;;19.58;;
52962;SDS011;38827;53.024;6.596;2024-02-15T00:39:18;44.35;;;19.52;;
52962;SDS011;38827;53.024;6.596;2024-02-15T00:41:45;47.40;;;20.67;;
52962;SDS011;38827;53.024;6.596;2024-02-15T00:44:11;44.65;;;20.33;;
52962;SDS011;38827;53.024;6.596;2024-02-15T00:46:37;42.08;;;19.45;;
52962;SDS011;38827;53.024;6.596;2024-02-15T00:49:06;45.93;;;20.20;;
52962;SDS011;38827;53.024;6.596;2024-02-15T00:51:32;46.47;;;20.08;;
52962;SDS011;38827;53.024;6.596;2024-02-15T00:54:01;44.28;;;18.45;;
52962;SDS011;38827;53.024;6.596;2024-02-15T00:56:27;42.45;;;18.23;;
52962;SDS011;38827;53.024;6.596;2024-02-15T01:01:20;36.43;;;17.10;;
52962;SDS011;38827;53.024;6.596;2024-02-15T01:03:46;39.17;;;17.80;;
52962;SDS011;38827;53.024;6.596;2024-02-15T01:06:12;40.03;;;17.88;;
52962;SDS011;38827;53.024;6.596;2024-02-15T01:08:38;37.88;;;17.05;;
52962;SDS011;38827;53.024;6.596;2024-02-15T01:11:04;34.67;;;15.88;;
52962;SDS011;38827;53.024;6.596;2024-02-15T01:15:56;37.17;;;16.03;;
52962;SDS011;38827;53.024;6.596;2024-02-15T01:18:22;35.80;;;15.82;;
52962;SDS011;38827;53.024;6.596;2024-02-15T01:20:48;32.97;;;14.10;;
52962;SDS011;38827;53.024;6.596;2024-02-15T01:23:13;37.03;;;14.98;;
52962;SDS011;38827;53.024;6.596;2024-02-15T01:25:39;32.83;;;15.30;;
52962;SDS011;38827;53.024;6.596;2024-02-15T01:28:05;31.90;;;13.73;;
52962;SDS011;38827;53.024;6.596;2024-02-15T01:30:31;29.75;;;12.80;;
52962;SDS011;38827;53.024;6.596;2024-02-15T01:32:57;27.20;;;12.45;;
52962;SDS011;38827;53.024;6.596;2024-02-15T01:35:23;26.75;;;11.98;;
52962;SDS011;38827;53.024;6.596;2024-02-15T01:37:50;27.67;;;11.55;;
52962;SDS011;38827;53.024;6.596;2024-02-15T01:40:15;27.83;;;11.30;;
52962;SDS011;38827;53.024;6.596;2024-02-15T01:42:42;20.40;;;9.17;;
52962;SDS011;38827;53.024;6.596;2024-02-15T01:45:09;23.58;;;10.95;;
52962;SDS011;38827;53.024;6.596;2024-02-15T01:47:37;21.75;;;9.98;;
52962;SDS011;38827;53.024;6.596;2024-02-15T01:50:05;24.27;;;9.60;;
52962;SDS011;38827;53.024;6.596;2024-02-15T01:52:32;18.50;;;8.63;;
52962;SDS011;38827;53.024;6.596;2024-02-15T01:54:58;18.90;;;8.52;;
52962;SDS011;38827;53.024;6.596;2024-02-15T01:57:25;18.95;;;8.07;;
52962;SDS011;38827;53.024;6.596;2024-02-15T01:59:52;20.20;;;7.95;;
52962;SDS011;38827;53.024;6.596;2024-02-15T02:02:18;15.27;;;6.93;;
52962;SDS011;38827;53.024;6.596;2024-02-15T02:04:45;17.80;;;6.88;;
52962;SDS011;38827;53.024;6.596;2024-02-15T02:07:12;16.13;;;7.15;;
52962;SDS011;38827;53.024;6.596;2024-02-15T02:09:39;16.63;;;6.65;;
52962;SDS011;38827;53.024;6.596;2024-02-15T02:12:05;14.30;;;6.50;;
52962;SDS011;38827;53.024;6.596;2024-02-15T02:17:10;21.37;;;7.43;;
52962;SDS011;38827;53.024;6.596;2024-02-15T02:19:37;21.38;;;7.57;;
52962;SDS011;38827;53.024;6.596;2024-02-15T02:22:03;18.40;;;7.10;;
52962;SDS011;38827;53.024;6.596;2024-02-15T02:27:02;17.08;;;6.75;;
52962;SDS011;38827;53.024;6.596;2024-02-15T02:29:30;18.45;;;7.90;;
52962;SDS011;38827;53.024;6.596;2024-02-15T02:31:56;21.42;;;8.57;;
52962;SDS011;38827;53.024;6.596;2024-02-15T02:34:22;18.45;;;8.55;;
52962;SDS011;38827;53.024;6.596;2024-02-15T02:36:48;20.70;;;8.50;;
52962;SDS011;38827;53.024;6.596;2024-02-15T02:39:15;15.50;;;8.07;;
52962;SDS011;38827;53.024;6.596;2024-02-15T02:41:41;16.15;;;8.30;;
52962;SDS011;38827;53.024;6.596;2024-02-15T02:44:07;23.38;;;7.70;;
52962;SDS011;38827;53.024;6.596;2024-02-15T02:46:42;22.70;;;7.82;;
52962;SDS011;38827;53.024;6.596;2024-02-15T02:49:08;22.00;;;8.50;;
52962;SDS011;38827;53.024;6.596;2024-02-15T02:51:34;21.67;;;8.15;;
52962;SDS011;38827;53.024;6.596;2024-02-15T02:54:00;29.00;;;9.57;;
52962;SDS011;38827;53.024;6.596;2024-02-15T02:56:29;24.90;;;9.02;;
52962;SDS011;38827;53.024;6.596;2024-02-15T02:58:56;26.15;;;9.10;;
52962;SDS011;38827;53.024;6.596;2024-02-15T03:01:22;27.67;;;9.15;;
52962;SDS011;38827;53.024;6.596;2024-02-15T03:03:52;23.58;;;9.18;;
52962;SDS011;38827;53.024;6.596;2024-02-15T03:06:20;26.25;;;9.70;;
52962;SDS011;38827;53.024;6.596;2024-02-15T03:08:46;23.13;;;9.97;;
52962;SDS011;38827;53.024;6.596;2024-02-15T03:11:12;28.13;;;10.60;;
52962;SDS011;38827;53.024;6.596;2024-02-15T03:13:39;24.63;;;9.68;;
52962;SDS011;38827;53.024;6.596;2024-02-15T03:16:05;27.13;;;10.27;;
52962;SDS011;38827;53.024;6.596;2024-02-15T03:18:31;30.05;;;9.70;;
52962;SDS011;38827;53.024;6.596;2024-02-15T03:23:23;22.70;;;8.57;;
52962;SDS011;38827;53.024;6.596;2024-02-15T03:25:49;26.17;;;9.48;;
52962;SDS011;38827;53.024;6.596;2024-02-15T03:28:16;23.67;;;8.85;;
52962;SDS011;38827;53.024;6.596;2024-02-15T03:30:42;24.75;;;9.25;;
52962;SDS011;38827;53.024;6.596;2024-02-15T03:33:08;33.30;;;10.68;;
52962;SDS011;38827;53.024;6.596;2024-02-15T03:35:33;21.73;;;9.55;;
52962;SDS011;38827;53.024;6.596;2024-02-15T03:38:00;31.33;;;9.80;;
52962;SDS011;38827;53.024;6.596;2024-02-15T03:40:26;26.58;;;9.98;;
52962;SDS011;38827;53.024;6.596;2024-02-15T03:42:55;29.25;;;10.68;;
52962;SDS011;38827;53.024;6.596;2024-02-15T03:45:24;27.25;;;10.35;;
52962;SDS011;38827;53.024;6.596;2024-02-15T03:47:53;33.13;;;11.07;;
52962;SDS011;38827;53.024;6.596;2024-02-15T03:50:20;25.25;;;9.60;;
52962;SDS011;38827;53.024;6.596;2024-02-15T03:52:49;29.20;;;10.63;;
52962;SDS011;38827;53.024;6.596;2024-02-15T03:55:16;40.53;;;11.75;;
52962;SDS011;38827;53.024;6.596;2024-02-15T03:57:42;27.60;;;10.45;;
52962;SDS011;38827;53.024;6.596;2024-02-15T04:00:09;27.40;;;12.07;;
52962;SDS011;38827;53.024;6.596;2024-02-15T04:02:36;29.40;;;12.50;;
52962;SDS011;38827;53.024;6.596;2024-02-15T04:05:02;30.20;;;12.55;;
52962;SDS011;38827;53.024;6.596;2024-02-15T04:07:30;37.10;;;14.45;;
52962;SDS011;38827;53.024;6.596;2024-02-15T04:09:56;34.20;;;15.87;;
52962;SDS011;38827;53.024;6.596;2024-02-15T04:12:21;34.75;;;17.05;;
52962;SDS011;38827;53.024;6.596;2024-02-15T04:14:47;33.53;;;16.17;;
52962;SDS011;38827;53.024;6.596;2024-02-15T04:17:14;32.92;;;16.52;;
52962;SDS011;38827;53.024;6.596;2024-02-15T04:19:46;33.15;;;16.40;;
52962;SDS011;38827;53.024;6.596;2024-02-15T04:22:13;36.63;;;17.00;;
52962;SDS011;38827;53.024;6.596;2024-02-15T04:24:41;30.42;;;15.70;;
52962;SDS011;38827;53.024;6.596;2024-02-15T04:27:07;39.60;;;17.50;;
52962;SDS011;38827;53.024;6.596;2024-02-15T04:29:36;37.50;;;18.67;;
52962;SDS011;38827;53.024;6.596;2024-02-15T04:32:05;38.15;;;18.02;;
52962;SDS011;38827;53.024;6.596;2024-02-15T04:34:35;31.10;;;17.83;;
52962;SDS011;38827;53.024;6.596;2024-02-15T04:37:04;31.30;;;18.85;;
52962;SDS011;38827;53.024;6.596;2024-02-15T04:39:35;29.05;;;17.85;;
52962;SDS011;38827;53.024;6.596;2024-02-15T04:42:02;34.33;;;17.98;;
52962;SDS011;38827;53.024;6.596;2024-02-15T04:44:29;32.55;;;18.30;;
52962;SDS011;38827;53.024;6.596;2024-02-15T04:46:57;33.42;;;17.70;;
52962;SDS011;38827;53.024;6.596;2024-02-15T04:49:23;36.40;;;18.67;;
52962;SDS011;38827;53.024;6.596;2024-02-15T04:51:49;31.92;;;17.90;;
52962;SDS011;38827;53.024;6.596;2024-02-15T04:54:14;34.45;;;18.80;;
52962;SDS011;38827;53.024;6.596;2024-02-15T04:56:41;31.60;;;17.80;;
52962;SDS011;38827;53.024;6.596;2024-02-15T04:59:07;33.72;;;17.52;;
52962;SDS011;38827;53.024;6.596;2024-02-15T05:01:36;32.72;;;18.65;;
52962;SDS011;38827;53.024;6.596;2024-02-15T05:04:02;31.17;;;18.52;;
52962;SDS011;38827;53.024;6.596;2024-02-15T05:06:32;31.02;;;18.10;;
52962;SDS011;38827;53.024;6.596;2024-02-15T05:08:58;29.13;;;17.58;;
52962;SDS011;38827;53.024;6.596;2024-02-15T05:11:25;31.35;;;18.50;;
52962;SDS011;38827;53.024;6.596;2024-02-15T05:13:51;34.22;;;19.63;;
52962;SDS011;38827;53.024;6.596;2024-02-15T05:16:17;34.47;;;19.90;;
52962;SDS011;38827;53.024;6.596;2024-02-15T05:18:43;36.43;;;19.83;;
52962;SDS011;38827;53.024;6.596;2024-02-15T05:21:10;30.60;;;19.15;;
52962;SDS011;38827;53.024;6.596;2024-02-15T05:23:37;34.45;;;19.67;;
52962;SDS011;38827;53.024;6.596;2024-02-15T05:28:34;35.45;;;21.17;;
52962;SDS011;38827;53.024;6.596;2024-02-15T05:33:36;34.70;;;20.70;;
52962;SDS011;38827;53.024;6.596;2024-02-15T05:36:07;34.00;;;19.85;;
52962;SDS011;38827;53.024;6.596;2024-02-15T05:38:33;35.50;;;21.13;;
52962;SDS011;38827;53.024;6.596;2024-02-15T05:40:59;40.42;;;22.77;;
52962;SDS011;38827;53.024;6.596;2024-02-15T05:43:26;39.67;;;22.48;;
52962;SDS011;38827;53.024;6.596;2024-02-15T05:45:51;39.92;;;22.67;;
52962;SDS011;38827;53.024;6.596;2024-02-15T05:48:18;39.67;;;23.95;;
52962;SDS011;38827;53.024;6.596;2024-02-15T05:50:43;42.10;;;23.52;;
52962;SDS011;38827;53.024;6.596;2024-02-15T05:53:09;38.85;;;22.77;;
52962;SDS011;38827;53.024;6.596;2024-02-15T05:55:35;37.33;;;23.08;;
52962;SDS011;38827;53.024;6.596;2024-02-15T05:58:02;44.47;;;24.10;;
52962;SDS011;38827;53.024;6.596;2024-02-15T06:00:29;39.15;;;24.65;;
52962;SDS011;38827;53.024;6.596;2024-02-15T06:02:55;41.28;;;23.77;;
52962;SDS011;38827;53.024;6.596;2024-02-15T06:05:21;43.95;;;25.00;;
52962;SDS011;38827;53.024;6.596;2024-02-15T06:07:47;40.05;;;24.20;;
52962;SDS011;38827;53.024;6.596;2024-02-15T06:10:12;40.47;;;24.95;;
52962;SDS011;38827;53.024;6.596;2024-02-15T06:12:39;39.85;;;24.88;;
52962;SDS011;38827;53.024;6.596;2024-02-15T06:15:06;39.92;;;25.10;;
52962;SDS011;38827;53.024;6.596;2024-02-15T06:17:40;46.67;;;25.00;;
52962;SDS011;38827;53.024;6.596;2024-02-15T06:20:09;43.75;;;25.35;;
52962;SDS011;38827;53.024;6.596;2024-02-15T06:22:43;41.72;;;25.58;;
52962;SDS011;38827;53.024;6.596;2024-02-15T06:25:09;37.63;;;24.00;;
52962;SDS011;38827;53.024;6.596;2024-02-15T06:27:38;41.10;;;25.25;;
52962;SDS011;38827;53.024;6.596;2024-02-15T06:30:11;38.65;;;24.83;;
52962;SDS011;38827;53.024;6.596;2024-02-15T06:32:56;35.80;;;23.73;;
52962;SDS011;38827;53.024;6.596;2024-02-15T06:35:41;41.47;;;24.00;;
52962;SDS011;38827;53.024;6.596;2024-02-15T06:38:25;37.05;;;22.30;;
52962;SDS011;38827;53.024;6.596;2024-02-15T06:41:10;37.30;;;22.67;;
52962;SDS011;38827;53.024;6.596;2024-02-15T06:43:39;38.58;;;24.23;;
52962;SDS011;38827;53.024;6.596;2024-02-15T06:46:06;40.50;;;22.92;;
52962;SDS011;38827;53.024;6.596;2024-02-15T06:48:36;35.47;;;22.73;;
52962;SDS011;38827;53.024;6.596;2024-02-15T06:51:02;38.13;;;22.92;;
52962;SDS011;38827;53.024;6.596;2024-02-15T06:53:29;36.58;;;22.15;;
52962;SDS011;38827;53.024;6.596;2024-02-15T06:55:55;36.28;;;21.70;;
52962;SDS011;38827;53.024;6.596;2024-02-15T06:58:21;36.90;;;21.93;;
52962;SDS011;38827;53.024;6.596;2024-02-15T07:00:47;33.67;;;19.92;;
52962;SDS011;38827;53.024;6.596;2024-02-15T07:03:15;31.40;;;21.52;;
52962;SDS011;38827;53.024;6.596;2024-02-15T07:05:42;35.90;;;20.88;;
52962;SDS011;38827;53.024;6.596;2024-02-15T07:08:08;29.45;;;19.05;;
52962;SDS011;38827;53.024;6.596;2024-02-15T07:10:40;31.70;;;18.33;;
52962;SDS011;38827;53.024;6.596;2024-02-15T07:13:05;30.48;;;19.83;;
52962;SDS011;38827;53.024;6.596;2024-02-15T07:15:32;31.15;;;19.98;;
52962;SDS011;38827;53.024;6.596;2024-02-15T07:18:04;34.47;;;18.90;;
52962;SDS011;38827;53.024;6.596;2024-02-15T07:20:33;38.70;;;19.23;;
52962;SDS011;38827;53.024;6.596;2024-02-15T07:22:59;28.58;;;18.92;;
52962;SDS011;38827;53.024;6.596;2024-02-15T07:28:45;27.65;;;18.17;;
52962;SDS011;38827;53.024;6.596;2024-02-15T07:31:20;28.87;;;18.00;;
52962;SDS011;38827;53.024;6.596;2024-02-15T07:33:47;31.70;;;17.67;;
52962;SDS011;38827;53.024;6.596;2024-02-15T07:36:29;25.05;;;16.65;;
52962;SDS011;38827;53.024;6.596;2024-02-15T07:38:55;32.77;;;18.37;;
52962;SDS011;38827;53.024;6.596;2024-02-15T07:41:49;33.65;;;18.80;;
52962;SDS011;38827;53.024;6.596;2024-02-15T07:44:16;27.40;;;16.75;;
52962;SDS011;38827;53.024;6.596;2024-02-15T07:46:42;28.70;;;17.05;;
52962;SDS011;38827;53.024;6.596;2024-02-15T07:49:08;34.03;;;17.88;;
52962;SDS011;38827;53.024;6.596;2024-02-15T07:51:40;29.02;;;17.30;;
52962;SDS011;38827;53.024;6.596;2024-02-15T07:54:06;24.50;;;16.00;;
52962;SDS011;38827;53.024;6.596;2024-02-15T07:56:57;26.30;;;16.17;;
52962;SDS011;38827;53.024;6.596;2024-02-15T07:59:23;33.85;;;16.33;;
52962;SDS011;38827;53.024;6.596;2024-02-15T08:01:58;26.80;;;16.08;;
52962;SDS011;38827;53.024;6.596;2024-02-15T08:04:36;24.23;;;16.10;;
52962;SDS011;38827;53.024;6.596;2024-02-15T08:07:14;25.92;;;15.70;;
52962;SDS011;38827;53.024;6.596;2024-02-15T08:09:43;25.50;;;15.20;;
52962;SDS011;38827;53.024;6.596;2024-02-15T08:12:19;27.73;;;15.25;;
52962;SDS011;38827;53.024;6.596;2024-02-15T08:14:44;26.65;;;15.90;;
52962;SDS011;38827;53.024;6.596;2024-02-15T08:17:10;27.05;;;14.77;;
52962;SDS011;38827;53.024;6.596;2024-02-15T08:19:40;20.73;;;14.05;;
52962;SDS011;38827;53.024;6.596;2024-02-15T08:22:06;21.15;;;14.95;;
52962;SDS011;38827;53.024;6.596;2024-02-15T08:24:52;28.73;;;14.98;;
52962;SDS011;38827;53.024;6.596;2024-02-15T08:27:19;18.27;;;12.55;;
52962;SDS011;38827;53.024;6.596;2024-02-15T08:29:47;20.27;;;12.90;;
52962;SDS011;38827;53.024;6.596;2024-02-15T08:32:16;21.08;;;14.07;;
52962;SDS011;38827;53.024;6.596;2024-02-15T08:35:19;21.20;;;14.35;;
52962;SDS011;38827;53.024;6.596;2024-02-15T08:37:57;18.10;;;13.20;;
52962;SDS011;38827;53.024;6.596;2024-02-15T08:40:29;21.88;;;13.15;;
52962;SDS011;38827;53.024;6.596;2024-02-15T08:42:58;19.67;;;13.73;;
52962;SDS011;38827;53.024;6.596;2024-02-15T08:45:33;22.35;;;13.93;;
52962;SDS011;38827;53.024;6.596;2024-02-15T08:48:12;20.83;;;13.65;;
52962;SDS011;38827;53.024;6.596;2024-02-15T08:53:45;21.17;;;13.27;;
52962;SDS011;38827;53.024;6.596;2024-02-15T08:56:20;20.42;;;13.07;;
52962;SDS011;38827;53.024;6.596;2024-02-15T08:58:54;19.17;;;12.80;;
52962;SDS011;38827;53.024;6.596;2024-02-15T09:01:32;28.10;;;13.93;;
52962;SDS011;38827;53.024;6.596;2024-02-15T09:04:04;22.55;;;13.50;;
52962;SDS011;38827;53.024;6.596;2024-02-15T09:06:31;20.30;;;13.50;;
52962;SDS011;38827;53.024;6.596;2024-02-15T09:08:57;20.05;;;13.40;;
52962;SDS011;38827;53.024;6.596;2024-02-15T09:11:27;21.77;;;13.10;;
52962;SDS011;38827;53.024;6.596;2024-02-15T09:13:57;19.60;;;12.60;;
52962;SDS011;38827;53.024;6.596;2024-02-15T09:16:32;20.80;;;13.10;;
52962;SDS011;38827;53.024;6.596;2024-02-15T09:18:58;18.88;;;13.57;;
52962;SDS011;38827;53.024;6.596;2024-02-15T09:21:26;24.55;;;13.93;;
52962;SDS011;38827;53.024;6.596;2024-02-15T09:23:56;21.02;;;13.27;;
52962;SDS011;38827;53.024;6.596;2024-02-15T09:26:36;21.73;;;13.35;;
52962;SDS011;38827;53.024;6.596;2024-02-15T09:29:05;20.98;;;12.63;;
52962;SDS011;38827;53.024;6.596;2024-02-15T09:31:43;19.02;;;12.70;;
52962;SDS011;38827;53.024;6.596;2024-02-15T09:34:18;18.42;;;12.82;;
52962;SDS011;38827;53.024;6.596;2024-02-15T09:36:43;19.73;;;12.40;;
52962;SDS011;38827;53.024;6.596;2024-02-15T09:39:13;18.70;;;12.52;;
52962;SDS011;38827;53.024;6.596;2024-02-15T09:41:45;19.98;;;12.18;;
52962;SDS011;38827;53.024;6.596;2024-02-15T09:44:30;16.25;;;11.70;;
52962;SDS011;38827;53.024;6.596;2024-02-15T09:47:16;16.73;;;11.07;;
52962;SDS011;38827;53.024;6.596;2024-02-15T09:49:55;14.48;;;10.20;;
52962;SDS011;38827;53.024;6.596;2024-02-15T09:52:22;12.27;;;9.50;;
52962;SDS011;38827;53.024;6.596;2024-02-15T09:54:56;13.35;;;10.15;;
52962;SDS011;38827;53.024;6.596;2024-02-15T09:57:21;15.43;;;10.80;;
52962;SDS011;38827;53.024;6.596;2024-02-15T09:59:47;13.27;;;9.75;;
52962;SDS011;38827;53.024;6.596;2024-02-15T10:02:28;14.30;;;10.57;;
52962;SDS011;38827;53.024;6.596;2024-02-15T10:07:55;10.77;;;8.82;;
52962;SDS011;38827;53.024;6.596;2024-02-15T10:10:24;11.57;;;8.95;;
52962;SDS011;38827;53.024;6.596;2024-02-15T10:12:52;10.88;;;8.40;;
52962;SDS011;38827;53.024;6.596;2024-02-15T10:15:37;12.95;;;8.63;;
52962;SDS011;38827;53.024;6.596;2024-02-15T10:18:26;10.50;;;8.52;;
52962;SDS011;38827;53.024;6.596;2024-02-15T10:20:58;11.20;;;7.63;;
52962;SDS011;38827;53.024;6.596;2024-02-15T10:23:24;9.65;;;7.57;;
52962;SDS011;38827;53.024;6.596;2024-02-15T10:25:59;10.23;;;7.78;;
52962;SDS011;38827;53.024;6.596;2024-02-15T10:28:43;9.85;;;7.65;;
52962;SDS011;38827;53.024;6.596;2024-02-15T10:31:15;11.98;;;7.57;;
52962;SDS011;38827;53.024;6.596;2024-02-15T10:34:13;10.07;;;7.10;;
52962;SDS011;38827;53.024;6.596;2024-02-15T10:37:13;10.98;;;7.25;;
52962;SDS011;38827;53.024;6.596;2024-02-15T10:42:41;8.93;;;6.75;;
52962;SDS011;38827;53.024;6.596;2024-02-15T10:45:08;8.38;;;6.55;;
52962;SDS011;38827;53.024;6.596;2024-02-15T10:47:38;8.32;;;6.07;;
52962;SDS011;38827;53.024;6.596;2024-02-15T10:50:06;7.88;;;6.07;;
52962;SDS011;38827;53.024;6.596;2024-02-15T10:52:57;8.15;;;5.88;;
52962;SDS011;38827;53.024;6.596;2024-02-15T10:58:16;6.90;;;5.82;;
52962;SDS011;38827;53.024;6.596;2024-02-15T11:00:51;6.53;;;5.72;;
52962;SDS011;38827;53.024;6.596;2024-02-15T11:03:25;6.07;;;5.40;;
52962;SDS011;38827;53.024;6.596;2024-02-15T11:06:14;6.32;;;5.72;;
52962;SDS011;38827;53.024;6.596;2024-02-15T11:11:09;6.43;;;5.20;;
52962;SDS011;38827;53.024;6.596;2024-02-15T11:13:37;6.05;;;4.90;;
52962;SDS011;38827;53.024;6.596;2024-02-15T11:22:08;4.82;;;4.15;;
52962;SDS011;38827;53.024;6.596;2024-02-15T11:24:36;5.75;;;4.90;;
52962;SDS011;38827;53.024;6.596;2024-02-15T11:27:07;4.43;;;4.00;;
52962;SDS011;38827;53.024;6.596;2024-02-15T11:35:24;3.15;;;2.88;;
52962;SDS011;38827;53.024;6.596;2024-02-15T11:46:37;2.30;;;2.08;;
52962;SDS011;38827;53.024;6.596;2024-02-15T11:49:16;2.75;;;2.30;;
52962;SDS011;38827;53.024;6.596;2024-02-15T11:51:43;3.30;;;1.90;;
52962;SDS011;38827;53.024;6.596;2024-02-15T11:54:10;2.40;;;2.13;;
52962;SDS011;38827;53.024;6.596;2024-02-15T11:56:55;2.13;;;1.92;;
52962;SDS011;38827;53.024;6.596;2024-02-15T11:59:53;2.35;;;2.08;;
52962;SDS011;38827;53.024;6.596;2024-02-15T12:02:49;2.03;;;1.70;;
52962;SDS011;38827;53.024;6.596;2024-02-15T12:08:30;2.03;;;1.83;;
52962;SDS011;38827;53.024;6.596;2024-02-15T12:11:21;2.22;;;2.03;;
52962;SDS011;38827;53.024;6.596;2024-02-15T12:14:12;2.25;;;2.00;;
52962;SDS011;38827;53.024;6.596;2024-02-15T12:17:23;2.22;;;2.00;;
52962;SDS011;38827;53.024;6.596;2024-02-15T12:20:07;2.30;;;2.05;;
52962;SDS011;38827;53.024;6.596;2024-02-15T12:22:47;4.07;;;2.28;;
52962;SDS011;38827;53.024;6.596;2024-02-15T12:25:36;2.75;;;2.38;;
52962;SDS011;38827;53.024;6.596;2024-02-15T12:28:09;4.43;;;2.65;;
52962;SDS011;38827;53.024;6.596;2024-02-15T12:31:01;4.68;;;3.08;;
52962;SDS011;38827;53.024;6.596;2024-02-15T12:33:34;4.60;;;3.50;;
52962;SDS011;38827;53.024;6.596;2024-02-15T12:38:39;7.10;;;4.32;;
52962;SDS011;38827;53.024;6.596;2024-02-15T12:44:17;6.35;;;4.50;;
52962;SDS011;38827;53.024;6.596;2024-02-15T12:46:54;5.55;;;4.80;;
52962;SDS011;38827;53.024;6.596;2024-02-15T12:51:53;6.88;;;5.20;;
52962;SDS011;38827;53.024;6.596;2024-02-15T12:54:38;6.20;;;5.18;;
52962;SDS011;38827;53.024;6.596;2024-02-15T13:00:57;8.30;;;6.90;;
52962;SDS011;38827;53.024;6.596;2024-02-15T13:03:23;9.25;;;7.03;;
52962;SDS011;38827;53.024;6.596;2024-02-15T13:05:55;10.35;;;7.72;;
52962;SDS011;38827;53.024;6.596;2024-02-15T13:08:31;6.95;;;5.57;;
52962;SDS011;38827;53.024;6.596;2024-02-15T13:11:02;7.10;;;5.80;;
52962;SDS011;38827;53.024;6.596;2024-02-15T13:13:34;6.55;;;5.40;;
52962;SDS011;38827;53.024;6.596;2024-02-15T13:16:00;9.43;;;5.85;;
52962;SDS011;38827;53.024;6.596;2024-02-15T13:18:26;7.33;;;5.80;;
52962;SDS011;38827;53.024;6.596;2024-02-15T13:20:53;8.20;;;5.65;;
52962;SDS011;38827;53.024;6.596;2024-02-15T13:23:22;6.32;;;5.50;;
52962;SDS011;38827;53.024;6.596;2024-02-15T13:25:48;6.82;;;4.85;;
52962;SDS011;38827;53.024;6.596;2024-02-15T13:28:30;5.93;;;5.00;;
52962;SDS011;38827;53.024;6.596;2024-02-15T13:30:56;5.22;;;4.68;;
52962;SDS011;38827;53.024;6.596;2024-02-15T13:33:28;6.32;;;4.57;;
52962;SDS011;38827;53.024;6.596;2024-02-15T13:39:04;6.00;;;5.03;;
52962;SDS011;38827;53.024;6.596;2024-02-15T13:41:42;6.68;;;5.15;;
52962;SDS011;38827;53.024;6.596;2024-02-15T13:44:26;6.85;;;4.93;;
52962;SDS011;38827;53.024;6.596;2024-02-15T13:47:04;4.55;;;4.15;;
52962;SDS011;38827;53.024;6.596;2024-02-15T13:49:30;5.15;;;4.05;;
52962;SDS011;38827;53.024;6.596;2024-02-15T13:52:00;6.53;;;3.87;;
52962;SDS011;38827;53.024;6.596;2024-02-15T13:54:44;6.75;;;4.38;;
52962;SDS011;38827;53.024;6.596;2024-02-15T13:57:24;5.53;;;4.57;;
52962;SDS011;38827;53.024;6.596;2024-02-15T13:59:51;7.40;;;4.93;;
52962;SDS011;38827;53.024;6.596;2024-02-15T14:02:17;5.45;;;4.25;;
52962;SDS011;38827;53.024;6.596;2024-02-15T14:04:53;5.35;;;4.28;;
52962;SDS011;38827;53.024;6.596;2024-02-15T14:07:24;5.20;;;4.65;;
52962;SDS011;38827;53.024;6.596;2024-02-15T14:09:59;6.32;;;5.40;;
52962;SDS011;38827;53.024;6.596;2024-02-15T14:12:25;7.47;;;5.32;;
52962;SDS011;38827;53.024;6.596;2024-02-15T14:14:51;10.18;;;6.28;;
52962;SDS011;38827;53.024;6.596;2024-02-15T14:17:18;8.10;;;5.68;;
52962;SDS011;38827;53.024;6.596;2024-02-15T14:19:45;8.43;;;5.70;;
52962;SDS011;38827;53.024;6.596;2024-02-15T14:22:12;11.43;;;6.95;;
52962;SDS011;38827;53.024;6.596;2024-02-15T14:24:43;9.90;;;6.50;;
52962;SDS011;38827;53.024;6.596;2024-02-15T14:27:09;10.38;;;7.35;;
52962;SDS011;38827;53.024;6.596;2024-02-15T14:29:51;11.50;;;7.68;;
52962;SDS011;38827;53.024;6.596;2024-02-15T14:32:57;11.13;;;7.47;;
52962;SDS011;38827;53.024;6.596;2024-02-15T14:35:38;13.75;;;7.60;;
52962;SDS011;38827;53.024;6.596;2024-02-15T14:38:05;15.37;;;8.27;;
52962;SDS011;38827;53.024;6.596;2024-02-15T14:40:55;16.33;;;8.45;;
52962;SDS011;38827;53.024;6.596;2024-02-15T14:43:29;23.65;;;13.68;;
52962;SDS011;38827;53.024;6.596;2024-02-15T14:46:10;13.75;;;8.93;;
52962;SDS011;38827;53.024;6.596;2024-02-15T14:48:35;14.32;;;8.68;;
52962;SDS011;38827;53.024;6.596;2024-02-15T14:51:17;16.95;;;8.80;;
52962;SDS011;38827;53.024;6.596;2024-02-15T14:53:44;12.60;;;8.52;;
52962;SDS011;38827;53.024;6.596;2024-02-15T14:56:10;12.65;;;8.48;;
52962;SDS011;38827;53.024;6.596;2024-02-15T14:58:38;13.57;;;8.50;;
52962;SDS011;38827;53.024;6.596;2024-02-15T15:01:05;14.65;;;8.98;;
52962;SDS011;38827;53.024;6.596;2024-02-15T15:06:20;16.67;;;8.65;;
52962;SDS011;38827;53.024;6.596;2024-02-15T15:09:10;11.98;;;8.45;;
52962;SDS011;38827;53.024;6.596;2024-02-15T15:12:00;14.93;;;8.60;;
52962;SDS011;38827;53.024;6.596;2024-02-15T15:14:45;18.55;;;9.70;;
52962;SDS011;38827;53.024;6.596;2024-02-15T15:17:17;13.52;;;8.98;;
52962;SDS011;38827;53.024;6.596;2024-02-15T15:19:46;14.20;;;8.48;;
52962;SDS011;38827;53.024;6.596;2024-02-15T15:22:11;15.27;;;9.07;;
52962;SDS011;38827;53.024;6.596;2024-02-15T15:27:02;17.10;;;9.68;;
52962;SDS011;38827;53.024;6.596;2024-02-15T15:29:39;12.80;;;8.55;;
52962;SDS011;38827;53.024;6.596;2024-02-15T15:32:18;16.00;;;9.02;;
52962;SDS011;38827;53.024;6.596;2024-02-15T15:34:50;17.25;;;9.98;;
52962;SDS011;38827;53.024;6.596;2024-02-15T15:37:16;15.73;;;9.85;;
52962;SDS011;38827;53.024;6.596;2024-02-15T15:39:50;22.27;;;12.50;;
52962;SDS011;38827;53.024;6.596;2024-02-15T15:42:22;14.93;;;9.38;;
52962;SDS011;38827;53.024;6.596;2024-02-15T15:47:53;20.95;;;10.27;;
52962;SDS011;38827;53.024;6.596;2024-02-15T15:50:38;16.30;;;9.35;;
52962;SDS011;38827;53.024;6.596;2024-02-15T15:53:24;17.75;;;10.50;;
52962;SDS011;38827;53.024;6.596;2024-02-15T16:01:52;18.63;;;10.25;;
52962;SDS011;38827;53.024;6.596;2024-02-15T16:04:18;21.50;;;9.52;;
52962;SDS011;38827;53.024;6.596;2024-02-15T16:07:08;17.25;;;9.93;;
52962;SDS011;38827;53.024;6.596;2024-02-15T16:09:37;18.23;;;10.27;;
52962;SDS011;38827;53.024;6.596;2024-02-15T16:12:24;19.17;;;10.07;;
52962;SDS011;38827;53.024;6.596;2024-02-15T16:14:50;13.17;;;8.30;;
52962;SDS011;38827;53.024;6.596;2024-02-15T16:17:22;13.45;;;8.45;;
52962;SDS011;38827;53.024;6.596;2024-02-15T16:19:51;15.05;;;8.05;;